createdAt,value
2022-08-29T00:00:07.635Z,43.70
2022-08-29T00:00:43.854Z,43.08
2022-08-29T00:01:21.501Z,43.83
2022-08-29T00:01:56.044Z,43.50
2022-08-29T00:02:31.278Z,43.95
2022-08-29T00:03:08.495Z,44.72
2022-08-29T00:03:44.827Z,42.92
2022-08-29T00:04:18.558Z,43.88
2022-08-29T00:04:54.735Z,44.70
2022-08-29T00:05:30.418Z,43.78
2022-08-29T00:06:04.471Z,42.70
2022-08-29T00:06:38.695Z,43.55
2022-08-29T00:07:14.481Z,44.55
2022-08-29T00:07:48.750Z,42.75
2022-08-29T00:08:23.666Z,45.20
2022-08-29T00:08:58.258Z,43.00
2022-08-29T00:09:32.752Z,43.08
2022-08-29T00:10:07.354Z,42.60
2022-08-29T00:10:42.300Z,42.97
2022-08-29T00:11:16.950Z,43.00
2022-08-29T00:11:50.550Z,44.13
2022-08-29T00:12:25.931Z,43.22
2022-08-29T00:12:59.933Z,43.83
2022-08-29T00:13:33.895Z,44.28
2022-08-29T00:14:08.763Z,43.90
2022-08-29T00:14:57.320Z,43.92
2022-08-29T00:15:31.102Z,43.33
2022-08-29T00:16:11.001Z,42.03
2022-08-29T00:16:44.487Z,42.03
2022-08-29T00:17:18.061Z,43.42
2022-08-29T00:17:53.373Z,43.85
2022-08-29T00:18:27.353Z,44.55
2022-08-29T00:19:02.330Z,43.30
2022-08-29T00:19:37.644Z,43.45
2022-08-29T00:20:14.270Z,43.15
2022-08-29T00:20:48.007Z,43.40
2022-08-29T00:21:23.109Z,43.53
2022-08-29T00:21:57.447Z,42.67
2022-08-29T00:22:31.350Z,43.63
2022-08-29T00:23:08.029Z,42.58
2022-08-29T00:23:42.245Z,44.63
2022-08-29T00:24:16.842Z,43.40
2022-08-29T00:24:51.834Z,42.72
2022-08-29T00:25:27.671Z,43.85
2022-08-29T00:26:01.046Z,43.47
2022-08-29T00:26:35.644Z,43.50
2022-08-29T00:27:10.765Z,43.83
2022-08-29T00:27:49.746Z,41.33
2022-08-29T00:28:25.808Z,41.00
2022-08-29T00:28:59.980Z,42.05
2022-08-29T00:29:34.405Z,42.80
2022-08-29T00:30:10.594Z,41.95
2022-08-29T00:30:43.658Z,43.55
2022-08-29T00:31:18.448Z,42.60
2022-08-29T00:31:53.551Z,42.00
2022-08-29T00:32:29.285Z,42.85
2022-08-29T00:33:03.093Z,43.55
2022-08-29T00:33:39.242Z,42.00
2022-08-29T00:34:13.364Z,42.90
2022-08-29T00:34:47.581Z,43.35
2022-08-29T00:35:26.889Z,42.65
2022-08-29T00:36:00.208Z,41.90
2022-08-29T00:36:36.267Z,41.85
2022-08-29T00:37:11.447Z,42.88
2022-08-29T00:37:45.637Z,42.03
2022-08-29T00:38:20.883Z,43.95
2022-08-29T00:39:02.901Z,42.63
2022-08-29T00:39:38.136Z,42.42
2022-08-29T00:40:13.863Z,44.15
2022-08-29T00:40:52.086Z,43.55
2022-08-29T00:41:27.608Z,42.95
2022-08-29T00:42:01.512Z,42.85
2022-08-29T00:42:36.429Z,41.85
2022-08-29T00:43:11.324Z,43.97
2022-08-29T00:43:45.930Z,43.20
2022-08-29T00:44:20.410Z,41.90
2022-08-29T00:44:54.456Z,42.58
2022-08-29T00:45:28.928Z,43.22
2022-08-29T00:46:08.653Z,44.53
2022-08-29T00:46:47.353Z,43.42
2022-08-29T00:47:25.191Z,41.53
2022-08-29T00:48:01.866Z,42.50
2022-08-29T00:48:35.497Z,41.97
2022-08-29T00:49:11.642Z,44.67
2022-08-29T00:49:48.399Z,41.67
2022-08-29T00:50:26.939Z,43.55
2022-08-29T00:51:02.720Z,43.00
2022-08-29T00:51:38.331Z,43.92
2022-08-29T00:52:14.165Z,42.75
2022-08-29T00:52:50.093Z,43.72
2022-08-29T00:53:29.467Z,41.67
2022-08-29T00:54:04.654Z,42.33
2022-08-29T00:54:40.308Z,43.03
2022-08-29T00:55:17.268Z,41.92
2022-08-29T00:55:52.597Z,41.88
2022-08-29T00:56:27.832Z,42.22
2022-08-29T00:57:02.988Z,40.38
2022-08-29T00:57:37.045Z,42.72
2022-08-29T00:58:14.472Z,40.97
2022-08-29T00:58:55.374Z,41.90
2022-08-29T00:59:32.745Z,41.58
2022-08-29T01:00:08.855Z,43.28
2022-08-29T01:00:43.513Z,41.67
2022-08-29T01:01:17.537Z,44.47
2022-08-29T01:01:52.472Z,41.88
2022-08-29T01:02:27.134Z,42.42
2022-08-29T01:03:01.728Z,43.75
2022-08-29T01:03:36.750Z,43.70
2022-08-29T01:04:24.260Z,42.40
2022-08-29T01:05:00.339Z,42.80
2022-08-29T01:05:38.105Z,43.15
2022-08-29T01:06:14.192Z,42.83
2022-08-29T01:06:48.457Z,42.30
2022-08-29T01:07:22.117Z,42.95
2022-08-29T01:07:56.203Z,42.53
2022-08-29T01:08:30.918Z,41.75
2022-08-29T01:09:04.746Z,41.13
2022-08-29T01:09:41.371Z,41.85
2022-08-29T01:10:31.532Z,43.67
2022-08-29T01:11:23.416Z,42.42
2022-08-29T01:12:16.106Z,41.03
2022-08-29T01:12:50.251Z,42.47
2022-08-29T01:13:26.329Z,43.95
2022-08-29T01:14:03.511Z,42.67
2022-08-29T01:14:38.800Z,41.00
2022-08-29T01:15:13.793Z,40.95
2022-08-29T01:15:48.523Z,42.83
2022-08-29T01:16:23.453Z,42.15
2022-08-29T01:17:00.110Z,43.17
2022-08-29T01:17:35.772Z,42.45
2022-08-29T01:18:11.984Z,42.70
2022-08-29T01:18:48.139Z,42.30
2022-08-29T01:19:40.855Z,42.05
2022-08-29T01:20:21.553Z,41.70
2022-08-29T01:21:04.621Z,42.65
2022-08-29T01:21:41.796Z,41.83
2022-08-29T01:22:21.892Z,43.78
2022-08-29T01:23:02.800Z,42.30
2022-08-29T01:23:43.220Z,41.42
2022-08-29T01:24:27.093Z,42.63
2022-08-29T01:25:02.906Z,41.03
2022-08-29T01:25:39.577Z,41.78
2022-08-29T01:26:14.708Z,41.70
2022-08-29T01:26:49.536Z,41.05
2022-08-29T01:27:25.170Z,41.85
2022-08-29T01:28:02.677Z,43.22
2022-08-29T01:28:39.483Z,43.45
2022-08-29T01:29:13.148Z,42.90
2022-08-29T01:29:47.931Z,42.75
2022-08-29T01:30:23.087Z,43.28
2022-08-29T01:31:00.398Z,43.08
2022-08-29T01:31:56.400Z,42.30
2022-08-29T01:32:31.703Z,41.88
2022-08-29T01:33:07.598Z,42.33
2022-08-29T01:33:45.956Z,42.42
2022-08-29T01:34:20.950Z,42.10
2022-08-29T01:34:55.971Z,44.10
2022-08-29T01:35:29.281Z,44.03
2022-08-29T01:36:04.012Z,43.33
2022-08-29T01:36:42.054Z,43.25
2022-08-29T01:37:17.616Z,43.70
2022-08-29T01:37:52.483Z,41.95
2022-08-29T01:38:27.873Z,42.53
2022-08-29T01:39:02.963Z,43.15
2022-08-29T01:39:39.688Z,44.17
2022-08-29T01:40:16.788Z,42.28
2022-08-29T01:40:56.907Z,42.80
2022-08-29T01:41:33.606Z,43.15
2022-08-29T01:42:11.510Z,43.33
2022-08-29T01:42:47.539Z,44.60
2022-08-29T01:43:22.900Z,42.70
2022-08-29T01:43:58.043Z,42.60
2022-08-29T01:44:32.238Z,42.95
2022-08-29T01:45:09.745Z,43.40
2022-08-29T01:45:45.749Z,43.88
2022-08-29T01:46:20.677Z,43.58
2022-08-29T01:47:00.264Z,43.90
2022-08-29T01:47:36.895Z,41.83
2022-08-29T01:48:11.086Z,43.17
2022-08-29T01:48:46.570Z,43.72
2022-08-29T01:49:20.720Z,45.28
2022-08-29T01:49:56.028Z,44.03
2022-08-29T01:50:31.351Z,42.20
2022-08-29T01:51:05.263Z,41.78
2022-08-29T01:51:39.442Z,43.53
2022-08-29T01:52:14.423Z,44.30
2022-08-29T01:52:48.722Z,44.85
2022-08-29T01:53:23.021Z,45.65
2022-08-29T01:53:57.731Z,43.50
2022-08-29T01:54:32.367Z,43.95
2022-08-29T01:55:09.198Z,44.35
2022-08-29T01:55:43.555Z,45.13
2022-08-29T01:56:18.863Z,44.33
2022-08-29T01:56:53.885Z,43.88
2022-08-29T01:57:28.329Z,43.53
2022-08-29T01:58:02.052Z,45.40
2022-08-29T01:58:35.715Z,42.85
2022-08-29T01:59:11.727Z,44.22
2022-08-29T01:59:48.016Z,45.05
2022-08-29T02:00:22.638Z,45.45
2022-08-29T02:00:56.472Z,45.33
2022-08-29T02:01:32.724Z,42.15
2022-08-29T02:02:08.680Z,44.17
2022-08-29T02:02:43.953Z,50.90
2022-08-29T02:03:19.182Z,48.10
2022-08-29T02:03:54.056Z,46.00
2022-08-29T02:04:27.614Z,44.80
2022-08-29T02:05:02.712Z,44.08
2022-08-29T02:05:37.501Z,45.05
2022-08-29T02:06:10.931Z,44.55
2022-08-29T02:06:46.797Z,47.15
2022-08-29T02:07:25.123Z,46.47
2022-08-29T02:08:00.723Z,45.67
2022-08-29T02:08:35.277Z,45.08
2022-08-29T02:09:11.217Z,43.92
2022-08-29T02:09:47.479Z,45.80
2022-08-29T02:10:22.968Z,44.95
2022-08-29T02:11:01.208Z,44.13
2022-08-29T02:11:37.662Z,44.33
2022-08-29T02:12:11.436Z,44.15
2022-08-29T02:12:46.125Z,43.83
2022-08-29T02:13:20.860Z,44.50
2022-08-29T02:13:55.831Z,44.70
2022-08-29T02:14:30.727Z,44.13
2022-08-29T02:15:07.580Z,43.88
2022-08-29T02:15:41.994Z,44.55
2022-08-29T02:16:16.621Z,46.20
2022-08-29T02:16:52.409Z,43.63
2022-08-29T02:17:26.289Z,44.92
2022-08-29T02:18:01.051Z,44.33
2022-08-29T02:18:35.302Z,43.90
2022-08-29T02:19:09.203Z,45.78
2022-08-29T02:19:45.150Z,44.42
2022-08-29T02:20:21.168Z,42.92
2022-08-29T02:20:54.858Z,45.67
2022-08-29T02:21:30.049Z,45.85
2022-08-29T02:22:05.039Z,45.83
2022-08-29T02:22:39.099Z,45.25
2022-08-29T02:23:29.761Z,43.92
2022-08-29T02:24:23.911Z,45.42
2022-08-29T02:24:59.762Z,43.92
2022-08-29T02:25:47.693Z,45.00
2022-08-29T02:26:22.412Z,44.17
2022-08-29T02:26:58.009Z,44.28
2022-08-29T02:27:33.298Z,45.05
2022-08-29T02:28:07.652Z,45.40
2022-08-29T02:28:42.320Z,44.38
2022-08-29T02:29:17.719Z,45.38
2022-08-29T02:29:51.650Z,43.47
2022-08-29T02:30:27.072Z,45.55
2022-08-29T02:31:01.633Z,46.15
2022-08-29T02:31:37.292Z,43.10
2022-08-29T02:32:13.469Z,46.22
2022-08-29T02:32:47.816Z,44.47
2022-08-29T02:33:21.966Z,44.08
2022-08-29T02:33:57.852Z,41.60
2022-08-29T02:34:34.120Z,41.55
2022-08-29T02:35:10.669Z,37.90
2022-08-29T02:35:47.725Z,37.67
2022-08-29T02:36:22.906Z,37.08
2022-08-29T02:37:00.745Z,36.78
2022-08-29T02:37:35.069Z,34.90
2022-08-29T02:38:09.013Z,35.63
2022-08-29T02:38:44.203Z,36.42
2022-08-29T02:39:18.469Z,34.40
2022-08-29T02:39:54.668Z,35.42
2022-08-29T02:40:31.690Z,34.60
2022-08-29T02:41:12.386Z,32.42
2022-08-29T02:41:48.399Z,35.92
2022-08-29T02:42:23.187Z,33.15
2022-08-29T02:42:58.457Z,33.17
2022-08-29T02:43:32.652Z,32.00
2022-08-29T02:44:11.219Z,32.17
2022-08-29T02:44:44.555Z,33.08
2022-08-29T02:45:19.055Z,32.60
2022-08-29T02:45:53.332Z,32.03
2022-08-29T02:46:28.046Z,33.90
2022-08-29T02:47:04.791Z,79.28
2022-08-29T02:47:40.101Z,37.63
2022-08-29T02:48:14.789Z,34.30
2022-08-29T02:49:00.779Z,31.55
2022-08-29T02:49:35.447Z,31.45
2022-08-29T02:50:10.856Z,30.92
2022-08-29T02:50:47.676Z,32.05
2022-08-29T02:51:22.715Z,30.02
2022-08-29T02:51:58.806Z,30.83
2022-08-29T02:52:36.697Z,31.40
2022-08-29T02:53:12.632Z,30.42
2022-08-29T02:53:46.029Z,30.65
2022-08-29T02:54:21.487Z,29.63
2022-08-29T02:54:57.245Z,51.13
2022-08-29T02:55:31.401Z,34.15
2022-08-29T02:56:08.689Z,39.40
2022-08-29T02:56:49.453Z,29.80
2022-08-29T02:57:22.995Z,28.90
2022-08-29T02:58:00.227Z,27.27
2022-08-29T02:58:35.242Z,27.13
2022-08-29T02:59:08.655Z,26.90
2022-08-29T02:59:44.876Z,26.65
2022-08-29T03:00:21.617Z,26.63
2022-08-29T03:00:55.889Z,25.85
2022-08-29T03:01:31.576Z,27.20
2022-08-29T03:02:06.331Z,27.88
2022-08-29T03:02:39.442Z,28.70
2022-08-29T03:03:14.457Z,27.63
2022-08-29T03:03:48.740Z,26.48
2022-08-29T03:04:22.635Z,25.98
2022-08-29T03:05:00.899Z,25.98
2022-08-29T03:05:35.749Z,25.33
2022-08-29T03:06:13.136Z,26.75
2022-08-29T03:06:47.900Z,25.35
2022-08-29T03:07:23.411Z,25.55
2022-08-29T03:07:58.459Z,24.85
2022-08-29T03:08:32.741Z,25.00
2022-08-29T03:09:07.802Z,25.50
2022-08-29T03:09:42.866Z,24.95
2022-08-29T03:10:16.627Z,22.90
2022-08-29T03:10:50.803Z,22.98
2022-08-29T03:11:29.416Z,28.27
2022-08-29T03:12:03.854Z,23.23
2022-08-29T03:12:38.171Z,21.48
2022-08-29T03:13:12.559Z,23.10
2022-08-29T03:13:46.111Z,22.38
2022-08-29T03:14:19.772Z,22.70
2022-08-29T03:14:55.675Z,24.23
2022-08-29T03:15:29.634Z,29.08
2022-08-29T03:16:03.217Z,21.75
2022-08-29T03:16:38.276Z,22.45
2022-08-29T03:17:14.355Z,23.45
2022-08-29T03:17:48.155Z,23.90
2022-08-29T03:18:22.135Z,21.67
2022-08-29T03:18:58.052Z,21.45
2022-08-29T03:19:31.439Z,22.42
2022-08-29T03:20:13.712Z,21.60
2022-08-29T03:20:48.254Z,21.25
2022-08-29T03:21:24.725Z,20.45
2022-08-29T03:21:58.919Z,20.60
2022-08-29T03:22:35.317Z,20.10
2022-08-29T03:23:10.270Z,19.77
2022-08-29T03:23:46.229Z,19.75
2022-08-29T03:24:26.549Z,20.98
2022-08-29T03:25:02.227Z,20.20
2022-08-29T03:25:36.769Z,20.88
2022-08-29T03:26:10.936Z,19.92
2022-08-29T03:26:46.076Z,20.25
2022-08-29T03:27:30.663Z,19.23
2022-08-29T03:28:07.218Z,19.92
2022-08-29T03:28:41.338Z,20.17
2022-08-29T03:29:15.724Z,20.50
2022-08-29T03:29:51.406Z,20.40
2022-08-29T03:30:24.654Z,21.05
2022-08-29T03:30:58.761Z,20.10
2022-08-29T03:31:34.796Z,64.57
2022-08-29T03:32:08.436Z,27.85
2022-08-29T03:32:42.043Z,27.67
2022-08-29T03:33:17.340Z,103.88
2022-08-29T03:33:50.217Z,24.38
2022-08-29T03:34:25.375Z,19.90
2022-08-29T03:35:01.626Z,19.88
2022-08-29T03:35:35.256Z,20.17
2022-08-29T03:36:14.731Z,20.63
2022-08-29T03:36:48.829Z,19.70
2022-08-29T03:37:22.829Z,20.42
2022-08-29T03:37:59.020Z,21.52
2022-08-29T03:38:33.360Z,20.65
2022-08-29T03:39:08.498Z,22.17
2022-08-29T03:39:43.265Z,20.08
2022-08-29T03:40:17.319Z,20.55
2022-08-29T03:40:52.107Z,22.50
2022-08-29T03:41:31.579Z,20.90
2022-08-29T03:42:07.932Z,21.40
2022-08-29T03:42:43.547Z,20.80
2022-08-29T03:43:20.069Z,20.20
2022-08-29T03:43:55.924Z,19.48
2022-08-29T03:44:31.257Z,20.90
2022-08-29T03:45:05.655Z,19.60
2022-08-29T03:45:39.709Z,19.25
2022-08-29T03:46:15.213Z,20.35
2022-08-29T03:46:49.594Z,19.60
2022-08-29T03:47:23.716Z,19.25
2022-08-29T03:48:00.116Z,19.52
2022-08-29T03:48:35.620Z,19.70
2022-08-29T03:49:10.487Z,21.17
2022-08-29T03:49:46.207Z,21.45
2022-08-29T03:50:20.966Z,19.42
2022-08-29T03:50:56.574Z,20.73
2022-08-29T03:51:32.969Z,20.23
2022-08-29T03:52:10.425Z,19.42
2022-08-29T03:52:44.603Z,19.83
2022-08-29T03:53:19.301Z,19.92
2022-08-29T03:53:54.675Z,19.05
2022-08-29T03:54:29.941Z,20.40
2022-08-29T03:55:08.321Z,18.77
2022-08-29T03:55:43.033Z,20.70
2022-08-29T03:56:20.067Z,20.15
2022-08-29T03:56:56.291Z,21.30
2022-08-29T03:57:35.612Z,20.35
2022-08-29T03:58:09.979Z,20.38
2022-08-29T03:58:50.410Z,20.42
2022-08-29T03:59:27.989Z,20.02
2022-08-29T04:00:03.167Z,21.67
2022-08-29T04:00:47.642Z,20.00
2022-08-29T04:01:22.965Z,21.00
2022-08-29T04:01:58.803Z,19.95
2022-08-29T04:02:35.199Z,20.13
2022-08-29T04:03:10.559Z,21.15
2022-08-29T04:03:45.332Z,20.63
2022-08-29T04:04:34.509Z,19.92
2022-08-29T04:05:08.910Z,21.92
2022-08-29T04:05:43.934Z,20.88
2022-08-29T04:06:17.525Z,20.52
2022-08-29T04:06:51.853Z,20.75
2022-08-29T04:07:25.356Z,21.40
2022-08-29T04:08:01.431Z,27.40
2022-08-29T04:08:35.713Z,19.77
2022-08-29T04:09:09.971Z,20.00
2022-08-29T04:09:44.488Z,21.15
2022-08-29T04:10:19.602Z,21.20
2022-08-29T04:10:53.889Z,21.98
2022-08-29T04:11:29.614Z,20.83
2022-08-29T04:12:05.050Z,23.77
2022-08-29T04:12:41.065Z,22.85
2022-08-29T04:13:15.438Z,21.25
2022-08-29T04:13:49.364Z,20.77
2022-08-29T04:14:24.794Z,20.70
2022-08-29T04:14:58.891Z,20.60
2022-08-29T04:15:34.421Z,21.77
2022-08-29T04:16:10.959Z,19.88
2022-08-29T04:16:48.889Z,20.58
2022-08-29T04:17:23.633Z,21.77
2022-08-29T04:17:58.729Z,21.83
2022-08-29T04:18:33.581Z,20.90
2022-08-29T04:19:07.217Z,22.70
2022-08-29T04:19:43.437Z,21.60
2022-08-29T04:20:20.599Z,21.27
2022-08-29T04:21:32.565Z,21.38
2022-08-29T04:22:06.801Z,22.15
2022-08-29T04:22:43.188Z,21.15
2022-08-29T04:23:18.000Z,25.45
2022-08-29T04:23:53.256Z,23.88
2022-08-29T04:24:27.748Z,22.88
2022-08-29T04:25:02.300Z,22.15
2022-08-29T04:25:38.187Z,22.65
2022-08-29T04:26:35.389Z,21.73
2022-08-29T04:27:10.444Z,22.10
2022-08-29T04:27:46.322Z,23.08
2022-08-29T04:28:20.713Z,22.00
2022-08-29T04:28:55.486Z,23.58
2022-08-29T04:29:30.025Z,21.55
2022-08-29T04:30:07.999Z,23.23
2022-08-29T04:30:41.877Z,22.55
2022-08-29T04:31:20.418Z,22.67
2022-08-29T04:31:55.416Z,21.50
2022-08-29T04:32:29.971Z,22.20
2022-08-29T04:33:04.762Z,22.33
2022-08-29T04:33:39.219Z,22.35
2022-08-29T04:34:14.580Z,23.33
2022-08-29T04:34:48.965Z,22.88
2022-08-29T04:35:24.254Z,22.17
2022-08-29T04:35:59.482Z,22.75
2022-08-29T04:36:33.938Z,23.33
2022-08-29T04:37:07.962Z,23.45
2022-08-29T04:37:41.789Z,23.00
2022-08-29T04:38:17.619Z,22.85
2022-08-29T04:38:52.220Z,22.10
2022-08-29T04:39:26.211Z,23.98
2022-08-29T04:40:02.266Z,21.67
2022-08-29T04:40:39.037Z,22.55
2022-08-29T04:41:15.486Z,22.42
2022-08-29T04:41:50.521Z,22.55
2022-08-29T04:42:23.533Z,21.60
2022-08-29T04:43:00.199Z,23.42
2022-08-29T04:43:34.696Z,22.73
2022-08-29T04:44:10.168Z,22.85
2022-08-29T04:44:44.701Z,22.45
2022-08-29T04:45:21.113Z,22.83
2022-08-29T04:45:55.991Z,22.80
2022-08-29T04:46:29.779Z,23.15
2022-08-29T04:47:05.566Z,22.40
2022-08-29T04:47:39.177Z,22.63
2022-08-29T04:48:12.597Z,23.55
2022-08-29T04:48:48.623Z,23.25
2022-08-29T04:49:23.175Z,22.27
2022-08-29T04:49:57.617Z,23.67
2022-08-29T04:50:31.831Z,23.88
2022-08-29T04:51:06.757Z,23.92
2022-08-29T04:51:42.291Z,22.35
2022-08-29T04:52:15.667Z,22.60
2022-08-29T04:52:49.714Z,23.40
2022-08-29T04:53:25.232Z,22.92
2022-08-29T04:54:00.437Z,23.73
2022-08-29T04:54:33.841Z,22.50
2022-08-29T04:55:08.323Z,22.77
2022-08-29T04:55:42.293Z,25.02
2022-08-29T04:56:17.855Z,24.60
2022-08-29T04:56:53.294Z,25.05
2022-08-29T04:57:31.083Z,33.13
2022-08-29T04:58:07.059Z,88.35
2022-08-29T04:58:46.163Z,41.35
2022-08-29T04:59:20.443Z,26.40
2022-08-29T04:59:55.199Z,23.60
2022-08-29T05:00:31.275Z,23.48
2022-08-29T05:01:05.645Z,23.60
2022-08-29T05:01:39.391Z,22.52
2022-08-29T05:02:18.348Z,23.00
2022-08-29T05:02:52.654Z,23.58
2022-08-29T05:03:28.223Z,22.27
2022-08-29T05:04:02.678Z,24.05
2022-08-29T05:04:37.156Z,25.02
2022-08-29T05:05:11.485Z,29.42
2022-08-29T05:05:46.218Z,25.83
2022-08-29T05:06:22.486Z,24.80
2022-08-29T05:06:57.074Z,27.92
2022-08-29T05:07:33.522Z,27.75
2022-08-29T05:08:12.681Z,26.55
2022-08-29T05:08:46.240Z,27.50
2022-08-29T05:09:23.177Z,26.48
2022-08-29T05:09:59.413Z,26.77
2022-08-29T05:10:33.518Z,27.70
2022-08-29T05:11:08.947Z,27.80
2022-08-29T05:11:43.728Z,27.48
2022-08-29T05:12:21.683Z,27.42
2022-08-29T05:12:55.936Z,28.13
2022-08-29T05:13:32.212Z,26.88
2022-08-29T05:14:07.329Z,26.27
2022-08-29T05:14:41.540Z,26.98
2022-08-29T05:15:17.053Z,26.75
2022-08-29T05:15:52.340Z,25.92
2022-08-29T05:16:26.409Z,27.35
2022-08-29T05:17:02.440Z,28.42
2022-08-29T05:17:37.164Z,27.35
2022-08-29T05:18:11.119Z,29.10
2022-08-29T05:18:47.445Z,29.67
2022-08-29T05:19:21.101Z,28.45
2022-08-29T05:19:54.804Z,30.42
2022-08-29T05:20:30.372Z,30.23
2022-08-29T05:21:05.633Z,28.63
2022-08-29T05:21:40.658Z,30.15
2022-08-29T05:22:15.421Z,29.90
2022-08-29T05:22:49.625Z,30.17
2022-08-29T05:23:22.975Z,28.42
2022-08-29T05:23:59.036Z,30.52
2022-08-29T05:24:37.870Z,29.70
2022-08-29T05:25:17.354Z,29.83
2022-08-29T05:25:58.447Z,30.25
2022-08-29T05:26:32.353Z,30.58
2022-08-29T05:27:10.384Z,29.83
2022-08-29T05:27:45.072Z,29.63
2022-08-29T05:28:19.959Z,30.60
2022-08-29T05:28:56.586Z,29.77
2022-08-29T05:29:31.810Z,29.65
2022-08-29T05:30:07.607Z,29.80
2022-08-29T05:30:42.190Z,28.67
2022-08-29T05:31:16.862Z,30.13
2022-08-29T05:31:53.814Z,30.50
2022-08-29T05:32:27.795Z,29.17
2022-08-29T05:33:03.885Z,29.42
2022-08-29T05:33:38.455Z,29.83
2022-08-29T05:34:32.032Z,31.67
2022-08-29T05:35:08.475Z,27.55
2022-08-29T05:35:42.371Z,29.77
2022-08-29T05:36:16.538Z,29.92
2022-08-29T05:36:52.159Z,29.67
2022-08-29T05:37:25.800Z,28.60
2022-08-29T05:38:03.749Z,29.73
2022-08-29T05:38:41.255Z,27.88
2022-08-29T05:39:15.118Z,28.48
2022-08-29T05:39:50.619Z,28.30
2022-08-29T05:40:25.465Z,30.65
2022-08-29T05:41:01.195Z,35.15
2022-08-29T05:41:36.466Z,28.95
2022-08-29T05:42:14.064Z,29.33
2022-08-29T05:42:47.715Z,28.73
2022-08-29T05:43:25.811Z,28.20
2022-08-29T05:44:01.206Z,28.55
2022-08-29T05:44:36.919Z,28.60
2022-08-29T05:45:14.046Z,28.90
2022-08-29T05:45:47.293Z,28.38
2022-08-29T05:46:22.066Z,28.85
2022-08-29T05:46:57.845Z,28.33
2022-08-29T05:47:33.305Z,28.83
2022-08-29T05:48:08.477Z,27.90
2022-08-29T05:48:44.171Z,27.92
2022-08-29T05:49:18.907Z,28.20
2022-08-29T05:49:53.792Z,29.80
2022-08-29T05:50:26.797Z,27.17
2022-08-29T05:51:00.969Z,29.70
2022-08-29T05:51:39.657Z,28.25
2022-08-29T05:52:16.697Z,29.30
2022-08-29T05:52:51.539Z,27.50
2022-08-29T05:53:26.150Z,28.05
2022-08-29T05:54:01.455Z,28.55
2022-08-29T05:54:36.535Z,28.77
2022-08-29T05:55:11.703Z,28.15
2022-08-29T05:55:46.481Z,29.13
2022-08-29T05:56:25.625Z,27.88
2022-08-29T05:56:58.687Z,29.38
2022-08-29T05:57:35.060Z,27.20
2022-08-29T05:58:08.683Z,28.50
2022-08-29T05:58:44.588Z,28.35
2022-08-29T05:59:21.444Z,29.20
2022-08-29T05:59:55.741Z,28.20
2022-08-29T06:00:30.221Z,27.52
2022-08-29T06:01:05.920Z,28.08
2022-08-29T06:01:38.921Z,30.05
2022-08-29T06:02:14.753Z,29.13
2022-08-29T06:02:51.114Z,29.27
2022-08-29T06:03:25.996Z,30.25
2022-08-29T06:04:01.278Z,29.42
2022-08-29T06:04:35.027Z,29.23
2022-08-29T06:05:12.135Z,28.55
2022-08-29T06:05:52.633Z,29.38
2022-08-29T06:06:27.307Z,28.83
2022-08-29T06:07:01.244Z,28.30
2022-08-29T06:07:36.846Z,29.15
2022-08-29T06:08:11.760Z,30.17
2022-08-29T06:08:46.331Z,28.92
2022-08-29T06:09:21.417Z,29.40
2022-08-29T06:10:03.280Z,30.20
2022-08-29T06:10:41.762Z,29.40
2022-08-29T06:11:16.020Z,28.38
2022-08-29T06:11:51.057Z,30.80
2022-08-29T06:12:26.323Z,29.58
2022-08-29T06:13:01.109Z,28.92
2022-08-29T06:13:36.489Z,31.38
2022-08-29T06:14:10.638Z,30.33
2022-08-29T06:14:50.140Z,30.00
2022-08-29T06:15:26.658Z,31.13
2022-08-29T06:16:02.688Z,31.98
2022-08-29T06:16:36.609Z,31.60
2022-08-29T06:17:11.343Z,30.50
2022-08-29T06:17:45.938Z,30.70
2022-08-29T06:18:18.816Z,30.85
2022-08-29T06:19:01.972Z,30.38
2022-08-29T06:19:37.753Z,32.83
2022-08-29T06:20:13.512Z,31.30
2022-08-29T06:20:47.959Z,31.98
2022-08-29T06:21:24.139Z,37.92
2022-08-29T06:21:57.960Z,32.58
2022-08-29T06:22:36.042Z,41.47
2022-08-29T06:23:15.494Z,32.55
2022-08-29T06:23:49.189Z,33.13
2022-08-29T06:24:24.651Z,32.45
2022-08-29T06:25:00.497Z,32.35
2022-08-29T06:25:40.079Z,32.13
2022-08-29T06:26:15.291Z,31.75
2022-08-29T06:26:49.837Z,33.50
2022-08-29T06:27:23.502Z,32.50
2022-08-29T06:27:58.622Z,32.33
2022-08-29T06:28:34.494Z,32.42
2022-08-29T06:29:10.042Z,32.80
2022-08-29T06:29:43.997Z,32.60
2022-08-29T06:30:21.861Z,31.95
2022-08-29T06:30:56.704Z,32.55
2022-08-29T06:31:31.452Z,33.30
2022-08-29T06:32:06.844Z,32.95
2022-08-29T06:32:41.989Z,34.67
2022-08-29T06:33:17.534Z,34.50
2022-08-29T06:33:52.948Z,32.63
2022-08-29T06:34:26.547Z,33.92
2022-08-29T06:35:02.313Z,34.70
2022-08-29T06:35:37.784Z,34.13
2022-08-29T06:36:12.587Z,33.63
2022-08-29T06:36:48.498Z,33.20
2022-08-29T06:37:23.934Z,33.75
2022-08-29T06:37:58.622Z,34.58
2022-08-29T06:38:34.400Z,34.25
2022-08-29T06:39:09.733Z,33.47
2022-08-29T06:39:45.132Z,33.63
2022-08-29T06:40:20.590Z,32.75
2022-08-29T06:40:55.068Z,33.63
2022-08-29T06:41:30.568Z,32.50
2022-08-29T06:42:05.952Z,33.63
2022-08-29T06:42:40.123Z,33.05
2022-08-29T06:43:16.304Z,33.38
2022-08-29T06:43:50.301Z,33.40
2022-08-29T06:44:24.986Z,33.55
2022-08-29T06:45:00.430Z,33.83
2022-08-29T06:45:43.478Z,34.78
2022-08-29T06:46:22.420Z,33.85
2022-08-29T06:46:57.152Z,34.25
2022-08-29T06:47:32.185Z,34.40
2022-08-29T06:48:07.641Z,34.25
2022-08-29T06:48:42.770Z,33.65
2022-08-29T06:49:17.759Z,34.15
2022-08-29T06:49:50.578Z,32.58
2022-08-29T06:50:25.440Z,32.63
2022-08-29T06:51:02.236Z,32.72
2022-08-29T06:51:37.392Z,33.67
2022-08-29T06:52:11.902Z,32.22
2022-08-29T06:52:46.975Z,33.28
2022-08-29T06:53:31.681Z,32.78
2022-08-29T06:54:07.603Z,32.85
2022-08-29T06:54:43.266Z,31.33
2022-08-29T06:55:23.789Z,33.58
2022-08-29T06:55:59.543Z,32.20
2022-08-29T06:56:34.389Z,32.85
2022-08-29T06:57:13.440Z,33.08
2022-08-29T06:57:47.630Z,32.47
2022-08-29T06:58:20.820Z,32.95
2022-08-29T06:58:56.376Z,32.75
2022-08-29T06:59:30.577Z,33.13
2022-08-29T07:00:21.379Z,32.67
2022-08-29T07:00:58.868Z,31.95
2022-08-29T07:01:34.233Z,32.42
2022-08-29T07:02:09.963Z,33.28
2022-08-29T07:02:44.624Z,33.22
2022-08-29T07:03:28.464Z,33.53
2022-08-29T07:04:03.124Z,32.80
2022-08-29T07:04:37.109Z,31.92
2022-08-29T07:05:13.272Z,33.03
2022-08-29T07:05:52.725Z,32.10
2022-08-29T07:06:28.155Z,33.38
2022-08-29T07:07:02.485Z,34.13
2022-08-29T07:07:36.682Z,35.63
2022-08-29T07:08:10.380Z,34.58
2022-08-29T07:08:55.429Z,33.55
2022-08-29T07:09:32.118Z,32.70
2022-08-29T07:10:08.624Z,33.83
2022-08-29T07:10:45.977Z,33.70
2022-08-29T07:11:19.905Z,34.45
2022-08-29T07:11:55.134Z,34.80
2022-08-29T07:12:29.773Z,34.30
2022-08-29T07:13:05.140Z,33.55
2022-08-29T07:13:40.851Z,36.53
2022-08-29T07:14:14.158Z,34.72
2022-08-29T07:14:48.572Z,35.30
2022-08-29T07:15:27.438Z,34.22
2022-08-29T07:16:04.390Z,35.50
2022-08-29T07:16:39.835Z,35.00
2022-08-29T07:17:19.042Z,35.28
2022-08-29T07:18:03.092Z,34.25
2022-08-29T07:18:37.589Z,34.95
2022-08-29T07:19:12.475Z,33.60
2022-08-29T07:19:47.892Z,33.72
2022-08-29T07:20:21.814Z,33.75
2022-08-29T07:20:56.431Z,35.08
2022-08-29T07:21:29.812Z,33.10
2022-08-29T07:22:04.366Z,34.13
2022-08-29T07:22:38.132Z,32.40
2022-08-29T07:23:13.234Z,33.60
2022-08-29T07:23:49.081Z,34.63
2022-08-29T07:24:24.964Z,34.88
2022-08-29T07:25:00.234Z,34.22
2022-08-29T07:25:35.139Z,34.33
2022-08-29T07:26:09.467Z,32.50
2022-08-29T07:26:45.759Z,33.63
2022-08-29T07:27:21.068Z,32.30
2022-08-29T07:27:56.251Z,32.67
2022-08-29T07:28:33.923Z,33.95
2022-08-29T07:29:11.469Z,33.13
2022-08-29T07:29:50.531Z,31.95
2022-08-29T07:30:25.192Z,30.67
2022-08-29T07:30:59.537Z,32.03
2022-08-29T07:31:35.785Z,31.17
2022-08-29T07:32:10.029Z,31.80
2022-08-29T07:32:46.723Z,31.08
2022-08-29T07:33:21.694Z,29.77
2022-08-29T07:34:02.196Z,30.83
2022-08-29T07:34:37.370Z,30.85
2022-08-29T07:35:13.658Z,28.52
2022-08-29T07:35:48.408Z,29.85
2022-08-29T07:36:22.451Z,29.45
2022-08-29T07:36:58.022Z,28.52
2022-08-29T07:37:33.621Z,30.58
2022-08-29T07:38:09.606Z,29.13
2022-08-29T07:38:43.310Z,28.67
2022-08-29T07:39:18.403Z,28.23
2022-08-29T07:39:52.879Z,28.75
2022-08-29T07:40:27.649Z,29.13
2022-08-29T07:41:02.680Z,28.63
2022-08-29T07:41:38.088Z,25.80
2022-08-29T07:42:11.726Z,24.48